createdAt,value
2023-03-23T15:59:42.151Z,5.28
2023-03-23T16:02:21.165Z,6.82
2023-03-23T16:04:50.298Z,11.60
2023-03-23T16:07:21.400Z,9.00
2023-03-23T16:09:49.274Z,8.75
2023-03-23T16:12:17.843Z,8.80
2023-03-23T16:14:45.380Z,9.82
2023-03-23T16:17:17.312Z,7.03
2023-03-23T16:19:44.713Z,7.00
2023-03-23T16:22:12.280Z,18.50
2023-03-23T16:24:39.947Z,9.35
2023-03-23T16:27:10.324Z,7.28
2023-03-23T16:29:54.822Z,6.85
2023-03-23T16:32:25.463Z,9.52
2023-03-23T16:34:52.939Z,17.58
2023-03-23T16:37:20.699Z,9.95
2023-03-23T16:39:48.391Z,7.78
2023-03-23T16:42:16.037Z,6.85
2023-03-23T16:44:43.461Z,7.68
2023-03-23T16:47:11.152Z,8.75
2023-03-23T16:49:38.542Z,6.20
2023-03-23T16:52:06.010Z,10.00
2023-03-23T16:54:33.656Z,5.97
2023-03-23T16:57:01.209Z,8.40
2023-03-23T16:59:29.063Z,15.80
2023-03-23T17:02:00.590Z,9.73
2023-03-23T17:04:28.047Z,11.38
2023-03-23T17:06:55.487Z,9.20
2023-03-23T17:09:23.467Z,4.47
2023-03-23T17:11:51.316Z,8.18
2023-03-23T17:14:18.988Z,6.40
2023-03-23T17:16:46.824Z,10.10
2023-03-23T17:19:14.382Z,9.88
2023-03-23T17:21:42.082Z,10.68
2023-03-23T17:24:10.140Z,8.20
2023-03-23T17:26:37.546Z,7.68
2023-03-23T17:29:05.270Z,10.68
2023-03-23T17:31:33.263Z,16.70
2023-03-23T17:34:00.901Z,14.23
2023-03-23T17:36:28.655Z,17.10
2023-03-23T17:38:56.362Z,15.27
2023-03-23T17:41:23.948Z,18.23
2023-03-23T17:43:51.382Z,22.13
2023-03-23T17:46:19.373Z,10.80
2023-03-23T17:48:46.830Z,15.02
2023-03-23T17:51:14.447Z,14.60
2023-03-23T17:53:42.196Z,7.40
2023-03-23T17:56:09.949Z,11.90
2023-03-23T17:58:37.718Z,31.92
2023-03-23T18:01:05.984Z,27.10
2023-03-23T18:03:33.952Z,37.50
2023-03-23T18:06:04.538Z,50.60
2023-03-23T18:08:33.000Z,46.83
2023-03-23T18:11:01.555Z,27.87
2023-03-23T18:13:32.382Z,20.88
2023-03-23T18:16:00.438Z,14.32
2023-03-23T18:18:28.117Z,10.05
2023-03-23T18:21:04.502Z,9.75
2023-03-23T18:23:39.046Z,12.43
2023-03-23T18:26:12.671Z,7.80
2023-03-23T18:28:40.849Z,11.12
2023-03-23T18:31:11.669Z,9.57
2023-03-23T18:33:42.418Z,9.07
2023-03-23T18:36:10.610Z,6.80
2023-03-23T18:38:39.199Z,11.05
2023-03-23T18:41:08.329Z,7.28
2023-03-23T18:43:36.338Z,16.42
2023-03-23T18:46:04.683Z,4.75
2023-03-23T18:48:32.453Z,7.37
2023-03-23T18:51:01.068Z,11.05
2023-03-23T18:53:29.096Z,7.82
2023-03-23T18:56:15.843Z,6.90
2023-03-23T18:58:44.207Z,13.90
2023-03-23T19:01:14.989Z,8.07
2023-03-23T19:03:43.509Z,10.05
2023-03-23T19:06:20.556Z,5.45
2023-03-23T19:08:48.969Z,6.28
2023-03-23T19:11:17.092Z,5.32
2023-03-23T19:13:58.376Z,12.73
2023-03-23T19:16:35.701Z,5.93
2023-03-23T19:19:05.006Z,10.50
2023-03-23T19:21:32.878Z,9.77
2023-03-23T19:24:01.538Z,6.47
2023-03-23T19:26:37.594Z,7.95
2023-03-23T19:31:38.500Z,8.00
2023-03-23T19:34:06.827Z,6.87
2023-03-23T19:36:35.610Z,9.32
2023-03-23T19:39:04.832Z,6.97
2023-03-23T19:41:33.828Z,7.65
2023-03-23T19:44:04.168Z,7.35
2023-03-23T19:46:32.636Z,8.43
2023-03-23T19:49:00.956Z,7.47
2023-03-23T19:51:28.708Z,5.68
2023-03-23T19:53:57.426Z,4.55
2023-03-23T19:56:25.476Z,7.07
2023-03-23T19:58:53.087Z,7.05
2023-03-23T20:01:21.264Z,11.50
2023-03-23T20:03:49.341Z,7.03
2023-03-23T20:06:16.780Z,5.80
2023-03-23T20:08:47.638Z,8.45
2023-03-23T20:11:17.733Z,10.20
2023-03-23T20:13:47.068Z,10.73
2023-03-23T20:16:16.700Z,30.50
2023-03-23T20:21:20.004Z,10.85
2023-03-23T20:23:49.592Z,13.20
2023-03-23T20:26:27.271Z,12.32
2023-03-23T20:28:55.770Z,9.88
2023-03-23T20:31:26.724Z,8.00
2023-03-23T20:34:01.997Z,8.77
2023-03-23T20:36:35.788Z,8.98
2023-03-23T20:39:06.352Z,8.82
2023-03-23T20:41:36.208Z,5.90
2023-03-23T20:44:09.168Z,7.95
2023-03-23T20:46:37.217Z,8.70
2023-03-23T20:49:06.097Z,23.42
2023-03-23T20:51:34.209Z,18.42
2023-03-23T20:54:03.858Z,10.20
2023-03-23T20:56:31.665Z,11.80
2023-03-23T20:58:59.563Z,10.52
2023-03-23T21:01:27.400Z,9.32
2023-03-23T21:03:57.030Z,16.52
2023-03-23T21:06:28.414Z,19.40
2023-03-23T21:08:57.438Z,14.18
2023-03-23T21:11:26.489Z,13.90
2023-03-23T21:13:54.383Z,11.52
2023-03-23T21:16:24.084Z,11.88
2023-03-23T21:18:51.825Z,16.20
2023-03-23T21:21:19.585Z,16.02
2023-03-23T21:23:52.119Z,12.35
2023-03-23T21:26:23.098Z,11.52
2023-03-23T21:28:53.955Z,10.57
2023-03-23T21:31:26.857Z,10.82
2023-03-23T21:33:54.580Z,6.15
2023-03-23T21:36:22.084Z,7.10
2023-03-23T21:38:50.223Z,7.45
2023-03-23T21:41:17.931Z,14.70
2023-03-23T21:43:45.860Z,14.35
2023-03-23T21:46:18.039Z,7.07
2023-03-23T21:48:50.944Z,6.75
2023-03-23T21:51:22.152Z,10.10
2023-03-23T21:53:50.244Z,10.52
2023-03-23T21:56:17.649Z,10.38
2023-03-23T21:58:45.042Z,7.30
2023-03-23T22:01:13.195Z,10.82
2023-03-23T22:03:41.109Z,6.15
2023-03-23T22:06:18.316Z,10.52
2023-03-23T22:08:46.750Z,10.60
2023-03-23T22:11:18.815Z,7.60
2023-03-23T22:13:46.860Z,12.60
2023-03-23T22:16:17.783Z,9.43
2023-03-23T22:18:46.496Z,9.07
2023-03-23T22:21:15.448Z,10.15
2023-03-23T22:23:43.961Z,12.63
2023-03-23T22:26:13.190Z,7.70
2023-03-23T22:28:41.301Z,8.00
2023-03-23T22:31:13.528Z,9.18
2023-03-23T22:33:41.605Z,11.05
2023-03-23T22:36:09.561Z,7.78
2023-03-23T22:38:39.074Z,4.95
2023-03-23T22:41:08.068Z,9.55
2023-03-23T22:43:36.504Z,9.20
2023-03-23T22:46:05.148Z,7.00
2023-03-23T22:48:32.953Z,10.80
2023-03-23T22:51:00.634Z,10.80
2023-03-23T22:53:28.143Z,10.32
2023-03-23T22:55:57.233Z,10.05
2023-03-23T22:58:26.296Z,10.35
2023-03-23T23:01:02.740Z,6.30
2023-03-23T23:03:31.518Z,19.27
2023-03-23T23:05:59.354Z,17.70
2023-03-23T23:08:28.694Z,7.07
2023-03-23T23:10:57.773Z,7.35
2023-03-23T23:13:26.464Z,6.43
2023-03-23T23:15:56.576Z,8.73
2023-03-23T23:18:25.998Z,8.98
2023-03-23T23:20:58.787Z,5.95
2023-03-23T23:23:28.063Z,11.15
2023-03-23T23:25:56.349Z,6.97
2023-03-23T23:28:24.309Z,5.35
2023-03-23T23:30:52.292Z,6.75
2023-03-23T23:33:20.081Z,6.22
2023-03-23T23:35:47.951Z,6.32
2023-03-23T23:38:16.660Z,6.87
2023-03-23T23:40:45.338Z,6.35
2023-03-23T23:43:14.566Z,6.45
2023-03-23T23:45:42.904Z,6.18
2023-03-23T23:48:10.774Z,6.05
2023-03-23T23:50:38.423Z,5.53
2023-03-23T23:53:06.302Z,7.72
2023-03-23T23:55:33.755Z,9.65
2023-03-23T23:58:01.189Z,5.22
